Terminal Aerodrome Forecast
Issued by NWS

Home | Current Version | Previous Version | Text Only | Print | Product List | Glossary On
Versions: 1 2 3 4 5 6 7 8 9 10 11 12 13 14 15 16 17 18 19 20 21 22 23 24 25 26 27 28 29 30 31 32
000
FTUS45 KGJT 260205 AAA
TAFEGE
TAF AMD
KEGE 260205Z 2602/2624 24005KT P6SM BKN110
     FM260500 09006KT P6SM SCT120
     FM261800 23010G20KT P6SM VCTS SCT080CB BKN120
      AMD LTD TO CLD VIS AND WIND TIL 261300=

USA.gov is the U.S. government's official web portal to all federal, state and local government web resources and services.